CheckWX is a tool to help pilots better visualize weather data.  It is not intended as a substitute for an official pre-flight weather briefing.

06:59:51 UTC

KBRL METAR
Southeast Iowa Regional Airport
Burlington, Iowa, USA
Current

1 hour ago

KBRL 210553Z AUTO 18010G20KT 10SM CLR 23/19 A3003 RMK AO2 SLP163 T02330194 10283 20233 403110211 56006
Observed
Sep-21 @ 05:53 UTC
Wind
  • 180° at 10 KTS
  • Gusting to 20 KTS
Visibility
10 SM
Flight Rules
VFR
Cloud Levels
  • Clear skies
Temperature
23°C / 73°F
Dewpoint
19°C / 66°F
Humidity
78%
Altimeter
30.03" Hg
Pressure
1016.92 hPa
Previous

2 hours ago

KBRL 210453Z AUTO 18012G18KT 10SM CLR 24/21 A3004 RMK AO2 SLP166 T02440206
Observed
Sep-21 @ 04:53 UTC
Wind
  • 180° at 12 KTS
  • Gusting to 18 KTS
Visibility
10 SM
Flight Rules
VFR
Cloud Levels
  • Clear skies
Temperature
24°C / 75°F
Dewpoint
21°C / 70°F
Humidity
83%
Altimeter
30.04" Hg
Pressure
1017.32 hPa
Previous

3 hours ago

KBRL 210353Z AUTO 16008KT 10SM CLR 26/21 A3004 RMK AO2 SLP166 T02560206
Observed
Sep-21 @ 03:53 UTC
Wind
  • 160° at 8 KTS
Visibility
10 SM
Flight Rules
VFR
Cloud Levels
  • Clear skies
Temperature
26°C / 79°F
Dewpoint
21°C / 70°F
Humidity
74%
Altimeter
30.04" Hg
Pressure
1017.32 hPa